Terminal Aerodrome Forecast
Issued by NWS

Home | Current Version | Previous Version | Text Only | Print | Product List | Glossary Off
Versions: 1 2 3 4 5 6 7 8 9 10 11 12 13 14 15 16 17 18 19

000
FTUS43 KGRB 301022 AAA
TAFATW
TAF AMD
KATW 301022Z 3010/3106 06010G15KT 6SM -RASN SCT009 BKN025
      TEMPO 3010/3014 3SM -SN BKN009
     FM301400 05012G19KT 2SM -RASN BKN009
     FM301600 05014G20KT 3SM -RA OVC005
     FM310100 03015G23KT 3SM -RASN BR OVC010=

USA.gov is the U.S. government's official web portal to all federal, state and local government web resources and services.